Date,TemperatureHighF,TemperatureAvgF,TemperatureLowF,DewpointHighF,DewpointAvgF,DewpointLowF,HumidityHigh,HumidityAvg,HumidityLow,PressureMaxIn,PressureMinIn,WindSpeedMaxMPH,WindSpeedAvgMPH,GustSpeedMaxMPH,PrecipitationSumIn
2013-3-1,62,55,46,48,39,33,86,58,34,30.02,29.93,11,7,19,0.00
2013-3-2,59,50,36,40,33,28,87,54,31,30.05,29.98,18,9,31,0.00
2013-3-3,56,43,30,37,30,27,89,61,35,30.19,30.01,16,8,29,0.00
2013-3-4,65,46,27,36,27,20,94,55,17,30.26,30.15,11,4,16,0.00
2013-3-5,78,56,33,54,42,32,96,63,26,30.21,30.06,12,6,45,0.00
2013-3-6,69,59,45,60,39,20,91,54,15,30.15,29.97,18,11,32,0.00
2013-3-7,67,50,35,44,36,30,89,60,32,30.24,30.13,12,6,17,0.00
2013-3-8,75,54,33,47,38,26,96,63,16,30.26,30.15,8,4,17,0.00
2013-3-9,76,58,38,49,44,37,96,66,30,30.26,30.16,11,6,18,0.00
2013-3-10,78,66,49,55,51,47,93,61,35,30.22,30.11,13,8,32,0.00
2013-3-11,79,65,48,58,54,46,94,68,43,30.15,29.95,14,6,23,0.00
2013-3-12,72,66,56,65,58,-100,92,80,67,30.05,29.92,15,8,24,0.00
2013-3-13,74,60,46,52,40,28,91,56,18,30.19,30.04,16,8,22,0.00
2013-3-14,68,54,42,41,32,22,86,51,17,30.28,30.17,16,8,25,0.00
2013-3-15,72,52,33,46,34,28,96,59,23,30.32,30.18,10,4,17,0.00
2013-3-16,79,58,35,50,39,-100,95,59,22,30.22,30.08,7,3,14,0.00
2013-3-17,77,61,41,57,48,40,95,68,37,30.18,30.04,11,4,20,0.00
2013-3-18,79,69,60,65,60,57,90,74,54,30.09,29.93,15,6,23,0.00
2013-3-19,85,71,59,64,60,56,94,70,39,30.04,29.92,10,4,14,0.00
2013-3-20,76,68,62,66,61,55,93,78,53,29.99,29.83,15,6,24,0.00
2013-3-21,72,60,46,55,38,25,94,54,17,30.00,29.88,14,6,51,0.00
2013-3-22,81,57,35,63,45,31,93,69,30,30.05,29.93,11,5,39,0.00
2013-3-23,88,73,62,70,64,60,93,76,44,30.02,29.81,15,6,24,0.00
2013-3-24,84,73,66,71,67,62,92,81,57,29.90,29.67,21,9,37,0.00
2013-3-25,75,66,53,67,44,23,90,54,14,30.05,29.76,15,10,26,0.00
2013-3-26,61,52,44,41,29,20,74,43,20,30.25,30.05,19,11,30,0.00
2013-3-27,64,48,30,34,29,23,94,54,21,30.33,30.23,11,6,17,0.00
2013-3-28,71,52,32,42,31,21,96,55,15,30.33,30.22,9,5,16,0.00
2013-3-29,74,56,37,48,36,26,95,55,16,30.37,30.23,11,4,18,0.00
2013-3-30,78,60,40,52,44,38,93,60,27,30.30,30.16,9,4,14,0.00
2013-3-31,83,69,58,55,50,-100,79,56,31,30.22,30.04,12,6,23,0.00